sensor_id;sensor_type;location;lat;lon;timestamp;pressure;altitude;pressure_sealevel;temperature;humidity
67987;BME280;54767;53.800;15.956;2023-03-21T00:01:53;100194.32;;;8.03;78.17
67987;BME280;54767;53.800;15.956;2023-03-21T00:04:23;100191.86;;;8.01;78.14
67987;BME280;54767;53.800;15.956;2023-03-21T00:06:52;100190.92;;;7.96;78.25
67987;BME280;54767;53.800;15.956;2023-03-21T00:09:20;100189.69;;;7.94;78.32
67987;BME280;54767;53.800;15.956;2023-03-21T00:11:48;100187.42;;;7.93;78.31
67987;BME280;54767;53.800;15.956;2023-03-21T00:14:17;100184.29;;;7.94;78.23
67987;BME280;54767;53.800;15.956;2023-03-21T00:16:47;100186.23;;;7.96;78.17
67987;BME280;54767;53.800;15.956;2023-03-21T00:19:20;100181.52;;;7.96;78.33
67987;BME280;54767;53.800;15.956;2023-03-21T00:21:48;100182.23;;;7.97;78.45
67987;BME280;54767;53.800;15.956;2023-03-21T00:24:35;100182.23;;;7.98;78.32
67987;BME280;54767;53.800;15.956;2023-03-21T00:27:04;100181.88;;;7.97;78.17
67987;BME280;54767;53.800;15.956;2023-03-21T00:29:53;100178.73;;;7.96;78.41
67987;BME280;54767;53.800;15.956;2023-03-21T00:32:21;100178.54;;;7.94;78.32
67987;BME280;54767;53.800;15.956;2023-03-21T00:34:49;100179.56;;;7.92;78.31
67987;BME280;54767;53.800;15.956;2023-03-21T00:37:39;100176.41;;;7.90;78.38
67987;BME280;54767;53.800;15.956;2023-03-21T00:40:08;100172.57;;;7.90;78.31
67987;BME280;54767;53.800;15.956;2023-03-21T00:42:46;100173.08;;;7.89;78.47
67987;BME280;54767;53.800;15.956;2023-03-21T00:45:14;100168.54;;;7.89;78.47
67987;BME280;54767;53.800;15.956;2023-03-21T00:47:43;100171.52;;;7.91;78.67
67987;BME280;54767;53.800;15.956;2023-03-21T00:50:12;100168.59;;;7.93;78.59
67987;BME280;54767;53.800;15.956;2023-03-21T00:52:41;100171.38;;;7.92;78.66
67987;BME280;54767;53.800;15.956;2023-03-21T00:55:13;100173.10;;;7.90;78.68
67987;BME280;54767;53.800;15.956;2023-03-21T00:57:42;100173.92;;;7.88;78.69
67987;BME280;54767;53.800;15.956;2023-03-21T01:00:18;100176.02;;;7.87;78.69
67987;BME280;54767;53.800;15.956;2023-03-21T01:02:48;100173.56;;;7.86;78.75
67987;BME280;54767;53.800;15.956;2023-03-21T01:05:41;100174.55;;;7.83;78.67
67987;BME280;54767;53.800;15.956;2023-03-21T01:08:29;100172.65;;;7.84;78.55
67987;BME280;54767;53.800;15.956;2023-03-21T01:11:20;100175.48;;;7.85;78.61
67987;BME280;54767;53.800;15.956;2023-03-21T01:13:50;100175.80;;;7.84;78.76
67987;BME280;54767;53.800;15.956;2023-03-21T01:16:35;100173.55;;;7.85;78.79
67987;BME280;54767;53.800;15.956;2023-03-21T01:19:05;100172.72;;;7.87;78.78
67987;BME280;54767;53.800;15.956;2023-03-21T01:21:49;100175.15;;;7.87;78.86
67987;BME280;54767;53.800;15.956;2023-03-21T01:24:17;100173.55;;;7.84;78.91
67987;BME280;54767;53.800;15.956;2023-03-21T01:26:45;100174.89;;;7.81;78.92
67987;BME280;54767;53.800;15.956;2023-03-21T01:29:13;100174.54;;;7.80;78.94
67987;BME280;54767;53.800;15.956;2023-03-21T01:31:42;100172.64;;;7.81;79.00
67987;BME280;54767;53.800;15.956;2023-03-21T01:34:11;100177.14;;;7.80;79.07
67987;BME280;54767;53.800;15.956;2023-03-21T01:36:39;100176.27;;;7.80;78.81
67987;BME280;54767;53.800;15.956;2023-03-21T01:39:07;100175.40;;;7.80;79.00
67987;BME280;54767;53.800;15.956;2023-03-21T01:41:38;100177.17;;;7.82;78.96
67987;BME280;54767;53.800;15.956;2023-03-21T01:44:16;100178.25;;;7.85;79.15
67987;BME280;54767;53.800;15.956;2023-03-21T01:46:51;100176.36;;;7.87;79.07
67987;BME280;54767;53.800;15.956;2023-03-21T01:49:41;100172.35;;;7.86;79.03
67987;BME280;54767;53.800;15.956;2023-03-21T01:52:17;100173.02;;;7.85;78.96
67987;BME280;54767;53.800;15.956;2023-03-21T01:55:05;100175.44;;;7.82;78.96
67987;BME280;54767;53.800;15.956;2023-03-21T01:57:40;100177.86;;;7.82;78.88
67987;BME280;54767;53.800;15.956;2023-03-21T02:00:25;100174.70;;;7.79;78.98
67987;BME280;54767;53.800;15.956;2023-03-21T02:02:55;100177.82;;;7.77;78.91
67987;BME280;54767;53.800;15.956;2023-03-21T02:06:04;100182.86;;;7.77;78.97
67987;BME280;54767;53.800;15.956;2023-03-21T02:08:35;100178.52;;;7.79;79.05
67987;BME280;54767;53.800;15.956;2023-03-21T02:11:07;100177.52;;;7.81;79.07
67987;BME280;54767;53.800;15.956;2023-03-21T02:13:37;100176.83;;;7.83;79.04
67987;BME280;54767;53.800;15.956;2023-03-21T02:16:11;100176.02;;;7.87;79.07
67987;BME280;54767;53.800;15.956;2023-03-21T02:27:15;100171.80;;;7.84;78.83
67987;BME280;54767;53.800;15.956;2023-03-21T02:38:37;100172.61;;;7.79;78.84
67987;BME280;54767;53.800;15.956;2023-03-21T02:41:31;100174.52;;;7.78;78.86
67987;BME280;54767;53.800;15.956;2023-03-21T02:44:18;100167.91;;;7.79;78.96
67987;BME280;54767;53.800;15.956;2023-03-21T02:49:43;100169.43;;;7.77;78.93
67987;BME280;54767;53.800;15.956;2023-03-21T02:52:18;100168.73;;;7.76;78.99
67987;BME280;54767;53.800;15.956;2023-03-21T02:55:05;100172.40;;;7.77;78.97
67987;BME280;54767;53.800;15.956;2023-03-21T02:57:35;100176.77;;;7.78;79.02
67987;BME280;54767;53.800;15.956;2023-03-21T03:00:15;100171.57;;;7.79;78.91
67987;BME280;54767;53.800;15.956;2023-03-21T03:02:45;100175.58;;;7.79;79.01
67987;BME280;54767;53.800;15.956;2023-03-21T03:05:23;100176.10;;;7.79;78.96
67987;BME280;54767;53.800;15.956;2023-03-21T03:08:00;100174.01;;;7.79;78.93
67987;BME280;54767;53.800;15.956;2023-03-21T03:16:01;100186.77;;;7.82;78.85
67987;BME280;54767;53.800;15.956;2023-03-21T03:21:46;100191.52;;;7.86;78.95
67987;BME280;54767;53.800;15.956;2023-03-21T03:24:28;100194.67;;;7.89;78.77
67987;BME280;54767;53.800;15.956;2023-03-21T03:27:05;100195.05;;;7.90;78.68
67987;BME280;54767;53.800;15.956;2023-03-21T03:29:38;100195.57;;;7.90;78.68
67987;BME280;54767;53.800;15.956;2023-03-21T03:32:12;100195.03;;;7.90;78.66
67987;BME280;54767;53.800;15.956;2023-03-21T03:34:46;100196.41;;;7.89;78.66
67987;BME280;54767;53.800;15.956;2023-03-21T03:37:20;100192.06;;;7.89;78.68
67987;BME280;54767;53.800;15.956;2023-03-21T03:40:01;100195.19;;;7.88;78.67
67987;BME280;54767;53.800;15.956;2023-03-21T03:42:40;100197.77;;;7.85;78.64
67987;BME280;54767;53.800;15.956;2023-03-21T03:45:10;100201.39;;;7.81;78.69
67987;BME280;54767;53.800;15.956;2023-03-21T03:47:49;100197.54;;;7.80;78.56
67987;BME280;54767;53.800;15.956;2023-03-21T03:50:31;100198.23;;;7.81;78.75
67987;BME280;54767;53.800;15.956;2023-03-21T03:53:12;100198.60;;;7.82;78.68
67987;BME280;54767;53.800;15.956;2023-03-21T03:55:46;100201.57;;;7.82;78.68
67987;BME280;54767;53.800;15.956;2023-03-21T03:58:20;100202.80;;;7.83;78.61
67987;BME280;54767;53.800;15.956;2023-03-21T04:00:56;100203.52;;;7.84;78.89
67987;BME280;54767;53.800;15.956;2023-03-21T04:03:24;100203.88;;;7.86;78.60
67987;BME280;54767;53.800;15.956;2023-03-21T04:05:52;100201.98;;;7.87;78.56
67987;BME280;54767;53.800;15.956;2023-03-21T04:08:21;100204.41;;;7.87;78.65
67987;BME280;54767;53.800;15.956;2023-03-21T04:10:50;100204.91;;;7.85;78.77
67987;BME280;54767;53.800;15.956;2023-03-21T04:13:18;100199.16;;;7.85;78.53
67987;BME280;54767;53.800;15.956;2023-03-21T04:15:47;100200.73;;;7.85;78.63
67987;BME280;54767;53.800;15.956;2023-03-21T04:18:15;100201.63;;;7.87;78.39
67987;BME280;54767;53.800;15.956;2023-03-21T04:20:43;100201.27;;;7.87;78.46
67987;BME280;54767;53.800;15.956;2023-03-21T04:23:12;100199.36;;;7.87;78.35
67987;BME280;54767;53.800;15.956;2023-03-21T04:25:40;100200.08;;;7.88;78.34
67987;BME280;54767;53.800;15.956;2023-03-21T04:28:23;100194.85;;;7.87;78.27
67987;BME280;54767;53.800;15.956;2023-03-21T04:30:51;100192.92;;;7.87;78.40
67987;BME280;54767;53.800;15.956;2023-03-21T04:33:32;100196.58;;;7.87;78.26
67987;BME280;54767;53.800;15.956;2023-03-21T04:36:06;100194.67;;;7.88;78.42
67987;BME280;54767;53.800;15.956;2023-03-21T04:38:36;100199.02;;;7.88;78.42
67987;BME280;54767;53.800;15.956;2023-03-21T04:41:05;100202.34;;;7.88;78.37
67987;BME280;54767;53.800;15.956;2023-03-21T04:43:33;100203.89;;;7.87;78.16
67987;BME280;54767;53.800;15.956;2023-03-21T04:46:01;100205.98;;;7.87;78.22
67987;BME280;54767;53.800;15.956;2023-03-21T04:48:30;100208.95;;;7.87;78.22
67987;BME280;54767;53.800;15.956;2023-03-21T04:50:58;100207.73;;;7.87;78.36
67987;BME280;54767;53.800;15.956;2023-03-21T04:53:26;100208.44;;;7.88;78.22
67987;BME280;54767;53.800;15.956;2023-03-21T04:55:54;100206.71;;;7.90;78.02
67987;BME280;54767;53.800;15.956;2023-03-21T04:58:24;100209.17;;;7.91;78.11
67987;BME280;54767;53.800;15.956;2023-03-21T05:00:53;100211.26;;;7.91;78.21
67987;BME280;54767;53.800;15.956;2023-03-21T05:03:22;100209.34;;;7.90;78.19
67987;BME280;54767;53.800;15.956;2023-03-21T05:05:50;100206.69;;;7.88;78.32
67987;BME280;54767;53.800;15.956;2023-03-21T05:08:19;100208.23;;;7.86;78.23
67987;BME280;54767;53.800;15.956;2023-03-21T05:10:47;100209.79;;;7.86;78.36
67987;BME280;54767;53.800;15.956;2023-03-21T05:13:15;100211.18;;;7.85;78.12
67987;BME280;54767;53.800;15.956;2023-03-21T05:15:44;100211.02;;;7.86;78.23
67987;BME280;54767;53.800;15.956;2023-03-21T05:18:12;100212.08;;;7.86;78.18
67987;BME280;54767;53.800;15.956;2023-03-21T05:20:40;100214.89;;;7.88;78.27
67987;BME280;54767;53.800;15.956;2023-03-21T05:23:12;100213.31;;;7.88;78.20
67987;BME280;54767;53.800;15.956;2023-03-21T05:25:40;100214.88;;;7.87;78.32
67987;BME280;54767;53.800;15.956;2023-03-21T05:28:08;100215.89;;;7.85;78.21
67987;BME280;54767;53.800;15.956;2023-03-21T05:30:36;100216.21;;;7.84;78.33
67987;BME280;54767;53.800;15.956;2023-03-21T05:33:05;100218.82;;;7.83;78.21
67987;BME280;54767;53.800;15.956;2023-03-21T05:35:33;100216.91;;;7.83;78.25
67987;BME280;54767;53.800;15.956;2023-03-21T05:38:02;100219.02;;;7.84;78.25
67987;BME280;54767;53.800;15.956;2023-03-21T05:40:31;100218.67;;;7.86;78.31
67987;BME280;54767;53.800;15.956;2023-03-21T05:42:59;100223.59;;;7.87;78.19
67987;BME280;54767;53.800;15.956;2023-03-21T05:45:27;100222.73;;;7.88;78.15
67987;BME280;54767;53.800;15.956;2023-03-21T05:47:56;100227.09;;;7.89;78.40
67987;BME280;54767;53.800;15.956;2023-03-21T05:50:24;100227.78;;;7.89;78.08
67987;BME280;54767;53.800;15.956;2023-03-21T05:52:52;100225.68;;;7.88;78.16
67987;BME280;54767;53.800;15.956;2023-03-21T05:55:20;100230.38;;;7.87;78.24
67987;BME280;54767;53.800;15.956;2023-03-21T05:57:49;100225.85;;;7.87;78.38
67987;BME280;54767;53.800;15.956;2023-03-21T06:00:18;100225.52;;;7.88;78.30
67987;BME280;54767;53.800;15.956;2023-03-21T06:02:49;100222.73;;;7.89;78.18
67987;BME280;54767;53.800;15.956;2023-03-21T06:05:17;100225.53;;;7.90;78.28
67987;BME280;54767;53.800;15.956;2023-03-21T06:07:45;100224.84;;;7.90;78.23
67987;BME280;54767;53.800;15.956;2023-03-21T06:10:13;100225.02;;;7.91;78.28
67987;BME280;54767;53.800;15.956;2023-03-21T06:12:42;100227.81;;;7.92;78.42
67987;BME280;54767;53.800;15.956;2023-03-21T06:15:10;100230.11;;;7.94;78.27
67987;BME280;54767;53.800;15.956;2023-03-21T06:17:39;100230.80;;;7.93;78.28
67987;BME280;54767;53.800;15.956;2023-03-21T06:20:09;100236.70;;;7.91;78.55
67987;BME280;54767;53.800;15.956;2023-03-21T06:22:38;100233.20;;;7.89;78.49
67987;BME280;54767;53.800;15.956;2023-03-21T06:25:07;100239.59;;;7.86;78.45
67987;BME280;54767;53.800;15.956;2023-03-21T06:27:36;100243.95;;;7.85;78.45
67987;BME280;54767;53.800;15.956;2023-03-21T06:30:05;100246.73;;;7.85;78.56
67987;BME280;54767;53.800;15.956;2023-03-21T06:32:35;100249.90;;;7.87;78.58
67987;BME280;54767;53.800;15.956;2023-03-21T06:35:03;100255.14;;;7.89;78.65
67987;BME280;54767;53.800;15.956;2023-03-21T06:37:32;100255.52;;;7.91;78.65
67987;BME280;54767;53.800;15.956;2023-03-21T06:40:01;100255.53;;;7.93;78.58
67987;BME280;54767;53.800;15.956;2023-03-21T06:42:29;100256.96;;;7.95;78.78
67987;BME280;54767;53.800;15.956;2023-03-21T06:44:57;100258.70;;;7.96;78.61
67987;BME280;54767;53.800;15.956;2023-03-21T06:47:26;100264.48;;;7.97;78.90
67987;BME280;54767;53.800;15.956;2023-03-21T06:49:54;100259.95;;;7.96;79.20
67987;BME280;54767;53.800;15.956;2023-03-21T06:52:22;100262.91;;;7.96;78.94
67987;BME280;54767;53.800;15.956;2023-03-21T06:54:51;100264.66;;;7.97;78.97
67987;BME280;54767;53.800;15.956;2023-03-21T06:57:19;100264.33;;;7.98;79.18
67987;BME280;54767;53.800;15.956;2023-03-21T06:59:48;100265.77;;;8.03;79.03
67987;BME280;54767;53.800;15.956;2023-03-21T07:02:17;100266.19;;;8.07;79.05
67987;BME280;54767;53.800;15.956;2023-03-21T07:04:45;100265.70;;;8.10;79.05
67987;BME280;54767;53.800;15.956;2023-03-21T07:07:14;100272.38;;;8.14;79.14
67987;BME280;54767;53.800;15.956;2023-03-21T07:09:42;100273.64;;;8.19;79.23
67987;BME280;54767;53.800;15.956;2023-03-21T07:12:11;100276.64;;;8.21;79.00
67987;BME280;54767;53.800;15.956;2023-03-21T07:14:39;100275.08;;;8.22;79.12
67987;BME280;54767;53.800;15.956;2023-03-21T07:17:07;100270.20;;;8.23;79.16
67987;BME280;54767;53.800;15.956;2023-03-21T07:19:35;100275.45;;;8.23;79.31
67987;BME280;54767;53.800;15.956;2023-03-21T07:22:04;100275.96;;;8.24;79.18
67987;BME280;54767;53.800;15.956;2023-03-21T07:24:32;100276.88;;;8.27;79.12
67987;BME280;54767;53.800;15.956;2023-03-21T07:27:00;100280.40;;;8.29;79.08
67987;BME280;54767;53.800;15.956;2023-03-21T07:29:28;100280.62;;;8.33;79.20
67987;BME280;54767;53.800;15.956;2023-03-21T07:31:57;100279.44;;;8.36;79.23
67987;BME280;54767;53.800;15.956;2023-03-21T07:34:25;100280.40;;;8.42;79.15
67987;BME280;54767;53.800;15.956;2023-03-21T07:36:59;100281.84;;;8.45;79.14
67987;BME280;54767;53.800;15.956;2023-03-21T07:39:27;100279.96;;;8.49;79.00
67987;BME280;54767;53.800;15.956;2023-03-21T07:41:56;100281.02;;;8.50;78.95
67987;BME280;54767;53.800;15.956;2023-03-21T07:44:26;100283.84;;;8.52;79.05
67987;BME280;54767;53.800;15.956;2023-03-21T07:46:54;100286.13;;;8.55;78.87
67987;BME280;54767;53.800;15.956;2023-03-21T07:49:23;100285.98;;;8.58;79.13
67987;BME280;54767;53.800;15.956;2023-03-21T07:51:51;100291.08;;;8.61;79.06
67987;BME280;54767;53.800;15.956;2023-03-21T07:54:19;100290.07;;;8.65;78.94
67987;BME280;54767;53.800;15.956;2023-03-21T07:56:49;100291.14;;;8.67;78.62
67987;BME280;54767;53.800;15.956;2023-03-21T07:59:18;100289.77;;;8.69;78.70
67987;BME280;54767;53.800;15.956;2023-03-21T08:01:46;100291.54;;;8.71;78.54
67987;BME280;54767;53.800;15.956;2023-03-21T08:04:14;100288.75;;;8.72;78.40
67987;BME280;54767;53.800;15.956;2023-03-21T08:06:43;100291.20;;;8.71;78.40
67987;BME280;54767;53.800;15.956;2023-03-21T08:09:11;100287.36;;;8.71;78.54
67987;BME280;54767;53.800;15.956;2023-03-21T08:11:39;100287.88;;;8.71;78.43
67987;BME280;54767;53.800;15.956;2023-03-21T08:14:08;100287.84;;;8.69;78.12
67987;BME280;54767;53.800;15.956;2023-03-21T08:16:36;100294.45;;;8.68;78.06
67987;BME280;54767;53.800;15.956;2023-03-21T08:19:04;100295.53;;;8.69;78.20
67987;BME280;54767;53.800;15.956;2023-03-21T08:21:33;100296.59;;;8.71;78.14
67987;BME280;54767;53.800;15.956;2023-03-21T08:24:01;100296.59;;;8.70;78.02
67987;BME280;54767;53.800;15.956;2023-03-21T08:26:29;100300.59;;;8.69;77.85
67987;BME280;54767;53.800;15.956;2023-03-21T08:28:59;100296.20;;;8.67;77.79
67987;BME280;54767;53.800;15.956;2023-03-21T08:31:27;100298.62;;;8.65;77.81
67987;BME280;54767;53.800;15.956;2023-03-21T08:33:56;100300.88;;;8.64;77.93
67987;BME280;54767;53.800;15.956;2023-03-21T08:36:24;100301.23;;;8.65;78.12
67987;BME280;54767;53.800;15.956;2023-03-21T08:38:53;100299.33;;;8.66;77.98
67987;BME280;54767;53.800;15.956;2023-03-21T08:41:24;100302.47;;;8.65;77.80
67987;BME280;54767;53.800;15.956;2023-03-21T08:43:53;100306.29;;;8.65;77.54
67987;BME280;54767;53.800;15.956;2023-03-21T08:46:21;100304.89;;;8.64;77.65
67987;BME280;54767;53.800;15.956;2023-03-21T08:48:49;100305.79;;;8.65;77.88
67987;BME280;54767;53.800;15.956;2023-03-21T08:51:19;100307.56;;;8.69;78.03
67987;BME280;54767;53.800;15.956;2023-03-21T08:53:47;100307.06;;;8.71;78.05
67987;BME280;54767;53.800;15.956;2023-03-21T08:56:18;100306.54;;;8.71;78.04
67987;BME280;54767;53.800;15.956;2023-03-21T08:58:46;100311.61;;;8.72;77.76
67987;BME280;54767;53.800;15.956;2023-03-21T09:01:16;100311.42;;;8.71;77.70
67987;BME280;54767;53.800;15.956;2023-03-21T09:03:45;100318.95;;;8.73;77.81
67987;BME280;54767;53.800;15.956;2023-03-21T09:06:13;100313.54;;;8.74;77.50
67987;BME280;54767;53.800;15.956;2023-03-21T09:08:42;100317.16;;;8.70;77.28
67987;BME280;54767;53.800;15.956;2023-03-21T09:11:14;100320.95;;;8.66;77.35
67987;BME280;54767;53.800;15.956;2023-03-21T09:13:42;100324.25;;;8.62;76.93
67987;BME280;54767;53.800;15.956;2023-03-21T09:16:10;100323.38;;;8.63;77.05
67987;BME280;54767;53.800;15.956;2023-03-21T09:18:38;100326.89;;;8.65;77.37
67987;BME280;54767;53.800;15.956;2023-03-21T09:21:16;100329.39;;;8.71;77.37
67987;BME280;54767;53.800;15.956;2023-03-21T09:23:45;100333.12;;;8.76;77.20
67987;BME280;54767;53.800;15.956;2023-03-21T09:26:15;100330.72;;;8.79;77.18
67987;BME280;54767;53.800;15.956;2023-03-21T09:28:44;100335.64;;;8.84;77.31
67987;BME280;54767;53.800;15.956;2023-03-21T09:31:15;100334.45;;;8.86;77.32
67987;BME280;54767;53.800;15.956;2023-03-21T09:33:51;100330.63;;;8.88;77.14
67987;BME280;54767;53.800;15.956;2023-03-21T09:36:20;100332.02;;;8.89;77.05
67987;BME280;54767;53.800;15.956;2023-03-21T09:38:53;100331.69;;;8.90;76.86
67987;BME280;54767;53.800;15.956;2023-03-21T09:44:37;100329.84;;;8.98;77.12
67987;BME280;54767;53.800;15.956;2023-03-21T09:49:53;100329.80;;;9.11;77.18
67987;BME280;54767;53.800;15.956;2023-03-21T09:55:41;100325.15;;;9.18;77.62
67987;BME280;54767;53.800;15.956;2023-03-21T10:01:02;100324.69;;;9.25;76.98
67987;BME280;54767;53.800;15.956;2023-03-21T10:03:36;100322.63;;;9.28;76.85
67987;BME280;54767;53.800;15.956;2023-03-21T10:06:12;100321.25;;;9.33;76.91
67987;BME280;54767;53.800;15.956;2023-03-21T10:08:45;100318.67;;;9.36;76.68
67987;BME280;54767;53.800;15.956;2023-03-21T10:11:23;100321.31;;;9.39;76.54
67987;BME280;54767;53.800;15.956;2023-03-21T10:14:27;100316.45;;;9.42;76.53
67987;BME280;54767;53.800;15.956;2023-03-21T10:17:19;100319.81;;;9.46;76.47
67987;BME280;54767;53.800;15.956;2023-03-21T10:19:56;100315.27;;;9.47;76.12
67987;BME280;54767;53.800;15.956;2023-03-21T10:22:27;100314.42;;;9.49;75.92
67987;BME280;54767;53.800;15.956;2023-03-21T10:24:56;100316.68;;;9.51;75.33
67987;BME280;54767;53.800;15.956;2023-03-21T10:27:24;100314.46;;;9.55;75.45
67987;BME280;54767;53.800;15.956;2023-03-21T10:29:53;100315.36;;;9.61;75.53
67987;BME280;54767;53.800;15.956;2023-03-21T10:32:24;100316.96;;;9.64;75.57
67987;BME280;54767;53.800;15.956;2023-03-21T10:34:55;100317.49;;;9.65;75.58
67987;BME280;54767;53.800;15.956;2023-03-21T10:37:29;100318.43;;;9.73;76.32
67987;BME280;54767;53.800;15.956;2023-03-21T10:39:59;100320.94;;;9.84;75.94
67987;BME280;54767;53.800;15.956;2023-03-21T10:42:29;100317.49;;;9.91;75.46
67987;BME280;54767;53.800;15.956;2023-03-21T10:45:00;100313.70;;;9.98;75.25
67987;BME280;54767;53.800;15.956;2023-03-21T10:47:31;100305.67;;;10.05;75.56
67987;BME280;54767;53.800;15.956;2023-03-21T10:50:12;100301.00;;;10.15;75.73
67987;BME280;54767;53.800;15.956;2023-03-21T10:52:52;100293.70;;;10.23;75.42
67987;BME280;54767;53.800;15.956;2023-03-21T10:55:33;100293.23;;;10.30;74.87
67987;BME280;54767;53.800;15.956;2023-03-21T10:58:07;100287.50;;;10.39;75.25
67987;BME280;54767;53.800;15.956;2023-03-21T11:00:40;100286.66;;;10.49;75.49
67987;BME280;54767;53.800;15.956;2023-03-21T11:09:06;100284.44;;;10.73;74.01
67987;BME280;54767;53.800;15.956;2023-03-21T11:14:23;100285.48;;;10.78;73.70
67987;BME280;54767;53.800;15.956;2023-03-21T11:16:52;100278.15;;;10.80;73.96
67987;BME280;54767;53.800;15.956;2023-03-21T11:19:32;100274.13;;;10.80;73.41
67987;BME280;54767;53.800;15.956;2023-03-21T11:22:06;100271.33;;;10.81;73.28
67987;BME280;54767;53.800;15.956;2023-03-21T11:24:35;100265.20;;;10.86;73.74
67987;BME280;54767;53.800;15.956;2023-03-21T11:27:06;100268.55;;;10.94;73.49
67987;BME280;54767;53.800;15.956;2023-03-21T11:29:37;100264.17;;;10.99;73.09
67987;BME280;54767;53.800;15.956;2023-03-21T11:32:13;100265.05;;;11.04;73.09
67987;BME280;54767;53.800;15.956;2023-03-21T11:34:49;100267.14;;;11.07;73.01
67987;BME280;54767;53.800;15.956;2023-03-21T11:37:30;100262.95;;;11.08;72.87
67987;BME280;54767;53.800;15.956;2023-03-21T11:40:23;100265.05;;;11.09;72.62
67987;BME280;54767;53.800;15.956;2023-03-21T11:42:54;100270.48;;;11.06;72.67
67987;BME280;54767;53.800;15.956;2023-03-21T11:45:25;100267.85;;;11.05;72.64
67987;BME280;54767;53.800;15.956;2023-03-21T11:47:57;100266.63;;;11.05;72.40
67987;BME280;54767;53.800;15.956;2023-03-21T11:53:26;100261.73;;;11.06;72.26
67987;BME280;54767;53.800;15.956;2023-03-21T12:01:17;100260.66;;;11.05;72.07
67987;BME280;54767;53.800;15.956;2023-03-21T12:09:40;100255.06;;;11.09;71.99
67987;BME280;54767;53.800;15.956;2023-03-21T12:12:39;100251.73;;;11.11;71.68
67987;BME280;54767;53.800;15.956;2023-03-21T12:20:40;100247.01;;;11.07;70.87
67987;BME280;54767;53.800;15.956;2023-03-21T12:26:22;100236.67;;;11.02;70.63
67987;BME280;54767;53.800;15.956;2023-03-21T12:39:27;100224.06;;;10.95;70.18
67987;BME280;54767;53.800;15.956;2023-03-21T12:42:12;100223.19;;;10.97;70.34
67987;BME280;54767;53.800;15.956;2023-03-21T12:44:55;100222.48;;;10.99;70.06
67987;BME280;54767;53.800;15.956;2023-03-21T12:47:30;100216.89;;;11.00;69.63
67987;BME280;54767;53.800;15.956;2023-03-21T12:50:21;100212.52;;;11.01;69.85
67987;BME280;54767;53.800;15.956;2023-03-21T12:52:56;100212.34;;;11.01;69.89
67987;BME280;54767;53.800;15.956;2023-03-21T12:55:30;100210.75;;;11.00;69.55
67987;BME280;54767;53.800;15.956;2023-03-21T12:58:15;100213.20;;;10.98;69.35
67987;BME280;54767;53.800;15.956;2023-03-21T13:00:52;100210.59;;;10.94;69.04
67987;BME280;54767;53.800;15.956;2023-03-21T13:03:35;100203.92;;;10.90;69.03
67987;BME280;54767;53.800;15.956;2023-03-21T13:06:10;100203.58;;;10.85;69.17
67987;BME280;54767;53.800;15.956;2023-03-21T13:11:15;100200.08;;;10.81;68.93
67987;BME280;54767;53.800;15.956;2023-03-21T13:16:35;100190.96;;;10.81;69.23
67987;BME280;54767;53.800;15.956;2023-03-21T13:24:42;100180.98;;;10.87;69.29
67987;BME280;54767;53.800;15.956;2023-03-21T13:27:29;100178.54;;;10.87;69.40
67987;BME280;54767;53.800;15.956;2023-03-21T13:32:37;100169.98;;;10.86;69.24
67987;BME280;54767;53.800;15.956;2023-03-21T13:35:21;100169.45;;;10.84;69.12
67987;BME280;54767;53.800;15.956;2023-03-21T13:40:48;100169.10;;;10.78;69.10
67987;BME280;54767;53.800;15.956;2023-03-21T13:46:34;100162.45;;;10.75;69.59
67987;BME280;54767;53.800;15.956;2023-03-21T13:51:56;100155.96;;;10.75;69.51
67987;BME280;54767;53.800;15.956;2023-03-21T13:54:43;100155.79;;;10.74;69.34
67987;BME280;54767;53.800;15.956;2023-03-21T14:03:13;100155.95;;;10.71;69.63
67987;BME280;54767;53.800;15.956;2023-03-21T14:05:41;100155.96;;;10.69;69.42
67987;BME280;54767;53.800;15.956;2023-03-21T14:08:17;100158.23;;;10.67;69.46
67987;BME280;54767;53.800;15.956;2023-03-21T14:11:06;100156.48;;;10.64;69.55
67987;BME280;54767;53.800;15.956;2023-03-21T14:13:35;100152.46;;;10.62;69.40
67987;BME280;54767;53.800;15.956;2023-03-21T14:16:18;100154.04;;;10.61;69.54
67987;BME280;54767;53.800;15.956;2023-03-21T14:18:58;100153.52;;;10.62;69.47
67987;BME280;54767;53.800;15.956;2023-03-21T14:21:30;100151.42;;;10.62;69.45
67987;BME280;54767;53.800;15.956;2023-03-21T14:24:03;100148.26;;;10.61;69.56
67987;BME280;54767;53.800;15.956;2023-03-21T14:26:36;100146.16;;;10.60;69.58
67987;BME280;54767;53.800;15.956;2023-03-21T14:29:08;100140.55;;;10.60;69.73
67987;BME280;54767;53.800;15.956;2023-03-21T14:31:54;100139.16;;;10.57;69.80
67987;BME280;54767;53.800;15.956;2023-03-21T14:34:25;100137.05;;;10.57;69.73
67987;BME280;54767;53.800;15.956;2023-03-21T14:36:54;100134.60;;;10.57;69.90
67987;BME280;54767;53.800;15.956;2023-03-21T14:39:31;100133.55;;;10.60;70.41
67987;BME280;54767;53.800;15.956;2023-03-21T14:42:05;100131.29;;;10.66;70.32
67987;BME280;54767;53.800;15.956;2023-03-21T14:49:50;100132.68;;;10.63;69.65
67987;BME280;54767;53.800;15.956;2023-03-21T14:52:29;100134.43;;;10.60;69.69
67987;BME280;54767;53.800;15.956;2023-03-21T14:54:59;100134.78;;;10.56;69.87
67987;BME280;54767;53.800;15.956;2023-03-21T14:57:30;100131.27;;;10.51;69.81
67987;BME280;54767;53.800;15.956;2023-03-21T15:00:02;100127.26;;;10.49;69.86
67987;BME280;54767;53.800;15.956;2023-03-21T15:02:50;100127.95;;;10.46;69.67
67987;BME280;54767;53.800;15.956;2023-03-21T15:05:34;100125.51;;;10.44;69.76
67987;BME280;54767;53.800;15.956;2023-03-21T15:08:25;100120.98;;;10.42;69.93
67987;BME280;54767;53.800;15.956;2023-03-21T15:11:03;100116.59;;;10.42;69.93
67987;BME280;54767;53.800;15.956;2023-03-21T15:16:10;100111.52;;;10.43;69.82